sensor_id;sensor_type;location;lat;lon;timestamp;temperature;humidity
7876;DHT22;69649;53.712;9.680;2023-11-21T00:02:20;8.20;81.90
7876;DHT22;69649;53.712;9.680;2023-11-21T00:04:48;8.10;81.90
7876;DHT22;69649;53.712;9.680;2023-11-21T00:07:14;8.10;81.90
7876;DHT22;69649;53.712;9.680;2023-11-21T00:09:40;8.10;82.10
7876;DHT22;69649;53.712;9.680;2023-11-21T00:12:08;8.20;82.00
7876;DHT22;69649;53.712;9.680;2023-11-21T00:14:37;8.20;82.10
7876;DHT22;69649;53.712;9.680;2023-11-21T00:17:04;8.20;81.70
7876;DHT22;69649;53.712;9.680;2023-11-21T00:19:31;8.20;81.70
7876;DHT22;69649;53.712;9.680;2023-11-21T00:21:57;8.20;81.50
7876;DHT22;69649;53.712;9.680;2023-11-21T00:24:24;8.20;81.40
7876;DHT22;69649;53.712;9.680;2023-11-21T00:26:51;8.10;81.30
7876;DHT22;69649;53.712;9.680;2023-11-21T00:29:17;8.10;81.10
7876;DHT22;69649;53.712;9.680;2023-11-21T00:31:44;8.10;80.90
7876;DHT22;69649;53.712;9.680;2023-11-21T00:34:13;8.10;80.90
7876;DHT22;69649;53.712;9.680;2023-11-21T00:36:39;8.00;80.70
7876;DHT22;69649;53.712;9.680;2023-11-21T00:39:05;8.00;81.00
7876;DHT22;69649;53.712;9.680;2023-11-21T00:41:32;8.00;81.00
7876;DHT22;69649;53.712;9.680;2023-11-21T00:43:57;8.00;80.80
7876;DHT22;69649;53.712;9.680;2023-11-21T00:46:24;8.00;80.90
7876;DHT22;69649;53.712;9.680;2023-11-21T00:48:52;8.10;80.80
7876;DHT22;69649;53.712;9.680;2023-11-21T00:51:20;8.10;80.60
7876;DHT22;69649;53.712;9.680;2023-11-21T00:53:46;8.00;80.40
7876;DHT22;69649;53.712;9.680;2023-11-21T00:56:12;8.00;80.30
7876;DHT22;69649;53.712;9.680;2023-11-21T00:58:39;8.10;80.30
7876;DHT22;69649;53.712;9.680;2023-11-21T01:01:07;8.10;80.40
7876;DHT22;69649;53.712;9.680;2023-11-21T01:03:33;8.00;80.30
7876;DHT22;69649;53.712;9.680;2023-11-21T01:05:58;8.00;80.40
7876;DHT22;69649;53.712;9.680;2023-11-21T01:08:24;8.00;80.40
7876;DHT22;69649;53.712;9.680;2023-11-21T01:10:50;8.00;80.30
7876;DHT22;69649;53.712;9.680;2023-11-21T01:13:16;8.00;80.10
7876;DHT22;69649;53.712;9.680;2023-11-21T01:15:42;8.00;79.70
7876;DHT22;69649;53.712;9.680;2023-11-21T01:18:07;7.90;79.50
7876;DHT22;69649;53.712;9.680;2023-11-21T01:20:34;7.80;79.50
7876;DHT22;69649;53.712;9.680;2023-11-21T01:23:00;7.80;79.30
7876;DHT22;69649;53.712;9.680;2023-11-21T01:25:26;7.80;79.10
7876;DHT22;69649;53.712;9.680;2023-11-21T01:27:52;7.80;79.20
7876;DHT22;69649;53.712;9.680;2023-11-21T01:30:18;7.80;79.20
7876;DHT22;69649;53.712;9.680;2023-11-21T01:32:44;7.80;78.80
7876;DHT22;69649;53.712;9.680;2023-11-21T01:35:10;7.60;79.00
7876;DHT22;69649;53.712;9.680;2023-11-21T01:37:37;7.60;78.90
7876;DHT22;69649;53.712;9.680;2023-11-21T01:40:04;7.60;78.90
7876;DHT22;69649;53.712;9.680;2023-11-21T01:42:31;7.60;79.00
7876;DHT22;69649;53.712;9.680;2023-11-21T01:44:57;7.60;78.90
7876;DHT22;69649;53.712;9.680;2023-11-21T01:47:23;7.60;78.90
7876;DHT22;69649;53.712;9.680;2023-11-21T01:49:49;7.60;79.00
7876;DHT22;69649;53.712;9.680;2023-11-21T01:52:15;7.60;79.20
7876;DHT22;69649;53.712;9.680;2023-11-21T01:54:41;7.60;79.00
7876;DHT22;69649;53.712;9.680;2023-11-21T01:57:08;7.60;79.00
7876;DHT22;69649;53.712;9.680;2023-11-21T01:59:35;7.60;79.00
7876;DHT22;69649;53.712;9.680;2023-11-21T02:02:05;7.60;79.00
7876;DHT22;69649;53.712;9.680;2023-11-21T02:04:35;7.60;78.60
7876;DHT22;69649;53.712;9.680;2023-11-21T02:07:02;7.60;78.80
7876;DHT22;69649;53.712;9.680;2023-11-21T02:09:30;7.60;79.00
7876;DHT22;69649;53.712;9.680;2023-11-21T02:11:57;7.60;79.00
7876;DHT22;69649;53.712;9.680;2023-11-21T02:14:26;7.60;79.20
7876;DHT22;69649;53.712;9.680;2023-11-21T02:16:59;7.60;79.10
7876;DHT22;69649;53.712;9.680;2023-11-21T02:19:26;7.60;78.90
7876;DHT22;69649;53.712;9.680;2023-11-21T02:21:53;7.50;79.00
7876;DHT22;69649;53.712;9.680;2023-11-21T02:24:23;7.50;78.90
7876;DHT22;69649;53.712;9.680;2023-11-21T02:26:49;7.50;79.00
7876;DHT22;69649;53.712;9.680;2023-11-21T02:29:18;7.50;78.80
7876;DHT22;69649;53.712;9.680;2023-11-21T02:31:45;7.50;78.10
7876;DHT22;69649;53.712;9.680;2023-11-21T02:34:14;7.50;77.90
7876;DHT22;69649;53.712;9.680;2023-11-21T02:36:40;7.40;77.80
7876;DHT22;69649;53.712;9.680;2023-11-21T02:39:08;7.30;77.20
7876;DHT22;69649;53.712;9.680;2023-11-21T02:41:34;7.30;77.30
7876;DHT22;69649;53.712;9.680;2023-11-21T02:44:00;7.40;77.00
7876;DHT22;69649;53.712;9.680;2023-11-21T02:46:26;7.30;77.10
7876;DHT22;69649;53.712;9.680;2023-11-21T02:48:52;7.20;77.10
7876;DHT22;69649;53.712;9.680;2023-11-21T02:51:20;7.20;77.10
7876;DHT22;69649;53.712;9.680;2023-11-21T02:53:45;7.30;77.30
7876;DHT22;69649;53.712;9.680;2023-11-21T02:56:12;7.20;77.30
7876;DHT22;69649;53.712;9.680;2023-11-21T02:58:43;7.30;77.10
7876;DHT22;69649;53.712;9.680;2023-11-21T03:01:30;7.30;77.20
7876;DHT22;69649;53.712;9.680;2023-11-21T03:03:57;7.30;76.90
7876;DHT22;69649;53.712;9.680;2023-11-21T03:06:22;7.30;76.70
7876;DHT22;69649;53.712;9.680;2023-11-21T03:08:49;7.20;76.80
7876;DHT22;69649;53.712;9.680;2023-11-21T03:11:15;7.20;76.80
7876;DHT22;69649;53.712;9.680;2023-11-21T03:13:41;7.20;76.80
7876;DHT22;69649;53.712;9.680;2023-11-21T03:16:11;7.20;76.70
7876;DHT22;69649;53.712;9.680;2023-11-21T03:18:38;7.20;76.50
7876;DHT22;69649;53.712;9.680;2023-11-21T03:21:05;7.20;76.80
7876;DHT22;69649;53.712;9.680;2023-11-21T03:23:31;7.10;76.40
7876;DHT22;69649;53.712;9.680;2023-11-21T03:25:58;7.10;76.40
7876;DHT22;69649;53.712;9.680;2023-11-21T03:28:25;7.20;76.40
7876;DHT22;69649;53.712;9.680;2023-11-21T03:30:52;7.20;76.50
7876;DHT22;69649;53.712;9.680;2023-11-21T03:33:18;7.20;76.60
7876;DHT22;69649;53.712;9.680;2023-11-21T03:35:44;7.20;76.80
7876;DHT22;69649;53.712;9.680;2023-11-21T03:38:10;7.20;76.50
7876;DHT22;69649;53.712;9.680;2023-11-21T03:40:36;7.20;76.50
7876;DHT22;69649;53.712;9.680;2023-11-21T03:43:02;7.10;76.20
7876;DHT22;69649;53.712;9.680;2023-11-21T03:45:27;7.10;76.10
7876;DHT22;69649;53.712;9.680;2023-11-21T03:47:53;7.00;76.40
7876;DHT22;69649;53.712;9.680;2023-11-21T03:50:19;7.00;76.50
7876;DHT22;69649;53.712;9.680;2023-11-21T03:52:45;7.00;76.50
7876;DHT22;69649;53.712;9.680;2023-11-21T03:55:10;7.00;76.40
7876;DHT22;69649;53.712;9.680;2023-11-21T03:57:36;7.00;76.40
7876;DHT22;69649;53.712;9.680;2023-11-21T04:00:03;7.10;76.40
7876;DHT22;69649;53.712;9.680;2023-11-21T04:02:30;7.00;76.50
7876;DHT22;69649;53.712;9.680;2023-11-21T04:04:57;7.10;76.40
7876;DHT22;69649;53.712;9.680;2023-11-21T04:07:23;7.10;76.30
7876;DHT22;69649;53.712;9.680;2023-11-21T04:09:48;7.10;76.40
7876;DHT22;69649;53.712;9.680;2023-11-21T04:12:14;7.10;76.50
7876;DHT22;69649;53.712;9.680;2023-11-21T04:14:40;7.10;76.50
7876;DHT22;69649;53.712;9.680;2023-11-21T04:17:06;7.10;76.40
7876;DHT22;69649;53.712;9.680;2023-11-21T04:19:32;7.00;76.50
7876;DHT22;69649;53.712;9.680;2023-11-21T04:21:58;7.00;76.50
7876;DHT22;69649;53.712;9.680;2023-11-21T04:24:23;7.00;76.30
7876;DHT22;69649;53.712;9.680;2023-11-21T04:26:49;7.00;76.60
7876;DHT22;69649;53.712;9.680;2023-11-21T04:29:15;7.00;76.50
7876;DHT22;69649;53.712;9.680;2023-11-21T04:31:41;7.00;76.30
7876;DHT22;69649;53.712;9.680;2023-11-21T04:34:07;7.10;76.60
7876;DHT22;69649;53.712;9.680;2023-11-21T04:36:33;7.10;76.30
7876;DHT22;69649;53.712;9.680;2023-11-21T04:39:00;7.10;76.00
7876;DHT22;69649;53.712;9.680;2023-11-21T04:41:26;7.10;75.90
7876;DHT22;69649;53.712;9.680;2023-11-21T04:43:52;7.10;75.60
7876;DHT22;69649;53.712;9.680;2023-11-21T04:46:18;7.10;75.60
7876;DHT22;69649;53.712;9.680;2023-11-21T04:48:43;7.10;75.70
7876;DHT22;69649;53.712;9.680;2023-11-21T04:51:10;7.20;75.40
7876;DHT22;69649;53.712;9.680;2023-11-21T04:53:38;7.10;75.30
7876;DHT22;69649;53.712;9.680;2023-11-21T04:56:05;7.00;75.40
7876;DHT22;69649;53.712;9.680;2023-11-21T04:58:31;7.00;75.30
7876;DHT22;69649;53.712;9.680;2023-11-21T05:00:58;7.00;75.60
7876;DHT22;69649;53.712;9.680;2023-11-21T05:03:24;7.00;75.50
7876;DHT22;69649;53.712;9.680;2023-11-21T05:05:50;7.00;75.50
7876;DHT22;69649;53.712;9.680;2023-11-21T05:08:16;7.00;75.70
7876;DHT22;69649;53.712;9.680;2023-11-21T05:10:41;7.00;75.70
7876;DHT22;69649;53.712;9.680;2023-11-21T05:13:07;7.00;75.70
7876;DHT22;69649;53.712;9.680;2023-11-21T05:15:35;7.00;75.70
7876;DHT22;69649;53.712;9.680;2023-11-21T05:18:00;7.00;75.80
7876;DHT22;69649;53.712;9.680;2023-11-21T05:20:26;7.00;75.90
7876;DHT22;69649;53.712;9.680;2023-11-21T05:22:52;7.00;75.90
7876;DHT22;69649;53.712;9.680;2023-11-21T05:25:18;7.00;76.00
7876;DHT22;69649;53.712;9.680;2023-11-21T05:27:45;7.00;75.90
7876;DHT22;69649;53.712;9.680;2023-11-21T05:30:11;7.10;75.50
7876;DHT22;69649;53.712;9.680;2023-11-21T05:32:38;7.10;75.50
7876;DHT22;69649;53.712;9.680;2023-11-21T05:35:04;7.10;75.40
7876;DHT22;69649;53.712;9.680;2023-11-21T05:37:32;7.10;75.40
7876;DHT22;69649;53.712;9.680;2023-11-21T05:39:58;7.00;75.40
7876;DHT22;69649;53.712;9.680;2023-11-21T05:42:25;7.10;77.00
7876;DHT22;69649;53.712;9.680;2023-11-21T05:44:51;7.10;76.80
7876;DHT22;69649;53.712;9.680;2023-11-21T05:47:17;7.10;76.00
7876;DHT22;69649;53.712;9.680;2023-11-21T05:49:43;7.20;75.90
7876;DHT22;69649;53.712;9.680;2023-11-21T05:52:10;7.20;75.80
7876;DHT22;69649;53.712;9.680;2023-11-21T05:54:36;7.20;75.80
7876;DHT22;69649;53.712;9.680;2023-11-21T05:57:02;7.20;75.80
7876;DHT22;69649;53.712;9.680;2023-11-21T05:59:28;7.20;75.90
7876;DHT22;69649;53.712;9.680;2023-11-21T06:01:54;7.10;76.00
7876;DHT22;69649;53.712;9.680;2023-11-21T06:04:19;7.20;76.20
7876;DHT22;69649;53.712;9.680;2023-11-21T06:06:47;7.20;76.40
7876;DHT22;69649;53.712;9.680;2023-11-21T06:09:13;7.20;76.50
7876;DHT22;69649;53.712;9.680;2023-11-21T06:11:38;7.20;76.90
7876;DHT22;69649;53.712;9.680;2023-11-21T06:14:04;7.10;77.10
7876;DHT22;69649;53.712;9.680;2023-11-21T06:16:32;7.10;77.20
7876;DHT22;69649;53.712;9.680;2023-11-21T06:18:58;7.20;77.10
7876;DHT22;69649;53.712;9.680;2023-11-21T06:21:23;7.20;77.20
7876;DHT22;69649;53.712;9.680;2023-11-21T06:23:50;7.20;77.40
7876;DHT22;69649;53.712;9.680;2023-11-21T06:26:15;7.20;77.50
7876;DHT22;69649;53.712;9.680;2023-11-21T06:28:41;7.20;77.50
7876;DHT22;69649;53.712;9.680;2023-11-21T06:31:07;7.20;77.30
7876;DHT22;69649;53.712;9.680;2023-11-21T06:33:33;7.10;77.50
7876;DHT22;69649;53.712;9.680;2023-11-21T06:35:59;7.20;77.50
7876;DHT22;69649;53.712;9.680;2023-11-21T06:38:27;7.20;77.50
7876;DHT22;69649;53.712;9.680;2023-11-21T06:40:54;7.10;77.70
7876;DHT22;69649;53.712;9.680;2023-11-21T06:43:20;7.10;77.70
7876;DHT22;69649;53.712;9.680;2023-11-21T06:45:47;7.10;77.50
7876;DHT22;69649;53.712;9.680;2023-11-21T06:48:13;7.10;77.50
7876;DHT22;69649;53.712;9.680;2023-11-21T06:50:39;7.00;77.60
7876;DHT22;69649;53.712;9.680;2023-11-21T06:53:05;7.10;77.90
7876;DHT22;69649;53.712;9.680;2023-11-21T06:55:32;7.00;77.50
7876;DHT22;69649;53.712;9.680;2023-11-21T06:57:58;7.00;77.70
7876;DHT22;69649;53.712;9.680;2023-11-21T07:00:26;7.10;77.80
7876;DHT22;69649;53.712;9.680;2023-11-21T07:02:54;7.00;77.70
7876;DHT22;69649;53.712;9.680;2023-11-21T07:05:23;7.10;77.60
7876;DHT22;69649;53.712;9.680;2023-11-21T07:07:49;7.10;77.50
7876;DHT22;69649;53.712;9.680;2023-11-21T07:10:15;7.10;77.60
7876;DHT22;69649;53.712;9.680;2023-11-21T07:12:42;7.00;77.70
7876;DHT22;69649;53.712;9.680;2023-11-21T07:15:08;7.00;77.60
7876;DHT22;69649;53.712;9.680;2023-11-21T07:17:38;7.00;77.60
7876;DHT22;69649;53.712;9.680;2023-11-21T07:20:06;7.00;77.60
7876;DHT22;69649;53.712;9.680;2023-11-21T07:22:32;7.00;77.60
7876;DHT22;69649;53.712;9.680;2023-11-21T07:24:58;7.00;77.70
7876;DHT22;69649;53.712;9.680;2023-11-21T07:27:23;7.00;77.70
7876;DHT22;69649;53.712;9.680;2023-11-21T07:29:49;7.00;77.70
7876;DHT22;69649;53.712;9.680;2023-11-21T07:32:15;7.00;77.50
7876;DHT22;69649;53.712;9.680;2023-11-21T07:34:41;6.90;77.60
7876;DHT22;69649;53.712;9.680;2023-11-21T07:37:07;6.90;77.60
7876;DHT22;69649;53.712;9.680;2023-11-21T07:39:35;7.00;77.70
7876;DHT22;69649;53.712;9.680;2023-11-21T07:42:02;7.00;77.60
7876;DHT22;69649;53.712;9.680;2023-11-21T07:44:29;7.00;77.50
7876;DHT22;69649;53.712;9.680;2023-11-21T07:46:55;6.90;77.70
7876;DHT22;69649;53.712;9.680;2023-11-21T07:49:23;7.00;77.80
7876;DHT22;69649;53.712;9.680;2023-11-21T07:51:50;7.00;77.90
7876;DHT22;69649;53.712;9.680;2023-11-21T07:54:16;6.90;77.90
7876;DHT22;69649;53.712;9.680;2023-11-21T07:56:42;6.90;77.90
7876;DHT22;69649;53.712;9.680;2023-11-21T07:59:08;6.90;77.90
7876;DHT22;69649;53.712;9.680;2023-11-21T08:01:34;6.90;78.00
7876;DHT22;69649;53.712;9.680;2023-11-21T08:04:00;6.90;77.80
7876;DHT22;69649;53.712;9.680;2023-11-21T08:06:27;6.90;77.90
7876;DHT22;69649;53.712;9.680;2023-11-21T08:08:54;6.90;78.10
7876;DHT22;69649;53.712;9.680;2023-11-21T08:11:19;6.90;78.30
7876;DHT22;69649;53.712;9.680;2023-11-21T08:13:46;6.90;78.40
7876;DHT22;69649;53.712;9.680;2023-11-21T08:16:12;6.90;78.30
7876;DHT22;69649;53.712;9.680;2023-11-21T08:18:38;6.90;78.30
7876;DHT22;69649;53.712;9.680;2023-11-21T08:21:05;6.90;78.50
7876;DHT22;69649;53.712;9.680;2023-11-21T08:23:31;6.90;78.50
7876;DHT22;69649;53.712;9.680;2023-11-21T08:25:57;6.90;78.50
7876;DHT22;69649;53.712;9.680;2023-11-21T08:28:23;6.90;78.60
7876;DHT22;69649;53.712;9.680;2023-11-21T08:30:50;6.90;78.60
7876;DHT22;69649;53.712;9.680;2023-11-21T08:33:16;6.80;78.50
7876;DHT22;69649;53.712;9.680;2023-11-21T08:35:42;6.80;78.60
7876;DHT22;69649;53.712;9.680;2023-11-21T08:38:08;6.80;78.40
7876;DHT22;69649;53.712;9.680;2023-11-21T08:40:35;6.90;78.50
7876;DHT22;69649;53.712;9.680;2023-11-21T08:43:01;6.90;78.40
7876;DHT22;69649;53.712;9.680;2023-11-21T08:45:28;6.90;78.40
7876;DHT22;69649;53.712;9.680;2023-11-21T08:47:54;7.00;78.30
7876;DHT22;69649;53.712;9.680;2023-11-21T08:50:20;7.00;78.50
7876;DHT22;69649;53.712;9.680;2023-11-21T08:52:46;7.10;78.40
7876;DHT22;69649;53.712;9.680;2023-11-21T08:55:12;7.20;78.20
7876;DHT22;69649;53.712;9.680;2023-11-21T08:57:39;7.20;77.90
7876;DHT22;69649;53.712;9.680;2023-11-21T09:00:10;7.20;77.70
7876;DHT22;69649;53.712;9.680;2023-11-21T09:02:42;7.20;77.70
7876;DHT22;69649;53.712;9.680;2023-11-21T09:05:12;7.30;77.70
7876;DHT22;69649;53.712;9.680;2023-11-21T09:07:40;7.30;77.40
7876;DHT22;69649;53.712;9.680;2023-11-21T09:10:09;7.30;77.30
7876;DHT22;69649;53.712;9.680;2023-11-21T09:12:36;7.40;77.20
7876;DHT22;69649;53.712;9.680;2023-11-21T09:15:06;7.40;76.80
7876;DHT22;69649;53.712;9.680;2023-11-21T09:17:33;7.40;76.90
7876;DHT22;69649;53.712;9.680;2023-11-21T09:20:00;7.40;76.80
7876;DHT22;69649;53.712;9.680;2023-11-21T09:22:25;7.40;76.50
7876;DHT22;69649;53.712;9.680;2023-11-21T09:24:52;7.30;76.50
7876;DHT22;69649;53.712;9.680;2023-11-21T09:27:19;7.40;76.40
7876;DHT22;69649;53.712;9.680;2023-11-21T09:29:45;7.50;76.60
7876;DHT22;69649;53.712;9.680;2023-11-21T09:32:12;7.50;76.40
7876;DHT22;69649;53.712;9.680;2023-11-21T09:34:40;7.60;76.50
7876;DHT22;69649;53.712;9.680;2023-11-21T09:37:07;7.80;76.40
7876;DHT22;69649;53.712;9.680;2023-11-21T09:39:34;7.80;76.20
7876;DHT22;69649;53.712;9.680;2023-11-21T09:42:15;7.90;76.60
7876;DHT22;69649;53.712;9.680;2023-11-21T09:47:30;8.00;75.50
7876;DHT22;69649;53.712;9.680;2023-11-21T09:49:57;8.00;75.30
7876;DHT22;69649;53.712;9.680;2023-11-21T09:52:27;8.00;74.40
7876;DHT22;69649;53.712;9.680;2023-11-21T09:54:54;7.80;74.00
7876;DHT22;69649;53.712;9.680;2023-11-21T09:57:24;7.80;74.10
7876;DHT22;69649;53.712;9.680;2023-11-21T09:59:54;7.60;73.70
7876;DHT22;69649;53.712;9.680;2023-11-21T10:02:27;7.70;74.60
7876;DHT22;69649;53.712;9.680;2023-11-21T10:04:59;7.70;74.30
7876;DHT22;69649;53.712;9.680;2023-11-21T10:07:26;7.80;74.60
7876;DHT22;69649;53.712;9.680;2023-11-21T10:09:52;7.70;74.10
7876;DHT22;69649;53.712;9.680;2023-11-21T10:12:19;7.80;74.40
7876;DHT22;69649;53.712;9.680;2023-11-21T10:14:48;7.70;73.80
7876;DHT22;69649;53.712;9.680;2023-11-21T10:17:15;7.60;73.80
7876;DHT22;69649;53.712;9.680;2023-11-21T10:19:48;7.60;73.70
7876;DHT22;69649;53.712;9.680;2023-11-21T10:22:17;7.50;73.60
7876;DHT22;69649;53.712;9.680;2023-11-21T10:24:45;7.50;73.70
7876;DHT22;69649;53.712;9.680;2023-11-21T10:27:11;7.50;73.70
7876;DHT22;69649;53.712;9.680;2023-11-21T10:29:39;7.50;74.00
7876;DHT22;69649;53.712;9.680;2023-11-21T10:32:05;7.50;74.30
7876;DHT22;69649;53.712;9.680;2023-11-21T10:34:31;7.50;74.40
7876;DHT22;69649;53.712;9.680;2023-11-21T10:36:58;7.60;74.30
7876;DHT22;69649;53.712;9.680;2023-11-21T10:39:24;7.60;74.40
7876;DHT22;69649;53.712;9.680;2023-11-21T10:41:52;7.60;74.50
7876;DHT22;69649;53.712;9.680;2023-11-21T10:44:18;7.60;74.50
7876;DHT22;69649;53.712;9.680;2023-11-21T10:46:50;7.70;74.50
7876;DHT22;69649;53.712;9.680;2023-11-21T10:49:25;7.80;74.40
7876;DHT22;69649;53.712;9.680;2023-11-21T10:51:52;7.80;73.30
7876;DHT22;69649;53.712;9.680;2023-11-21T10:54:20;7.80;72.70
7876;DHT22;69649;53.712;9.680;2023-11-21T10:56:49;7.70;73.40
7876;DHT22;69649;53.712;9.680;2023-11-21T10:59:17;7.80;73.40
7876;DHT22;69649;53.712;9.680;2023-11-21T11:01:45;7.80;73.20
7876;DHT22;69649;53.712;9.680;2023-11-21T11:04:13;7.90;74.10
7876;DHT22;69649;53.712;9.680;2023-11-21T11:06:43;8.00;73.90
7876;DHT22;69649;53.712;9.680;2023-11-21T11:09:12;8.00;73.20
7876;DHT22;69649;53.712;9.680;2023-11-21T11:11:41;8.10;73.00
7876;DHT22;69649;53.712;9.680;2023-11-21T11:14:11;8.00;72.20
7876;DHT22;69649;53.712;9.680;2023-11-21T11:16:39;8.00;72.90
7876;DHT22;69649;53.712;9.680;2023-11-21T11:19:11;7.80;72.30
7876;DHT22;69649;53.712;9.680;2023-11-21T11:24:56;7.50;72.80
7876;DHT22;69649;53.712;9.680;2023-11-21T11:35:26;7.50;74.80
7876;DHT22;69649;53.712;9.680;2023-11-21T11:37:52;7.40;74.50
7876;DHT22;69649;53.712;9.680;2023-11-21T11:40:20;7.50;74.40
7876;DHT22;69649;53.712;9.680;2023-11-21T11:43:01;7.40;73.60
7876;DHT22;69649;53.712;9.680;2023-11-21T11:45:34;7.50;77.80
7876;DHT22;69649;53.712;9.680;2023-11-21T11:48:01;7.50;75.40
7876;DHT22;69649;53.712;9.680;2023-11-21T11:50:29;7.50;73.40
7876;DHT22;69649;53.712;9.680;2023-11-21T11:52:57;7.50;73.60
7876;DHT22;69649;53.712;9.680;2023-11-21T11:55:24;7.50;73.70
7876;DHT22;69649;53.712;9.680;2023-11-21T11:57:52;7.40;73.50
7876;DHT22;69649;53.712;9.680;2023-11-21T12:00:22;7.40;73.40
7876;DHT22;69649;53.712;9.680;2023-11-21T12:02:55;7.40;73.00
7876;DHT22;69649;53.712;9.680;2023-11-21T12:05:26;7.40;73.50
7876;DHT22;69649;53.712;9.680;2023-11-21T12:07:57;7.40;73.80
7876;DHT22;69649;53.712;9.680;2023-11-21T12:10:25;7.20;73.20
7876;DHT22;69649;53.712;9.680;2023-11-21T12:12:54;7.20;73.80
7876;DHT22;69649;53.712;9.680;2023-11-21T12:15:20;7.20;73.90
7876;DHT22;69649;53.712;9.680;2023-11-21T12:17:47;7.20;74.60
7876;DHT22;69649;53.712;9.680;2023-11-21T12:20:15;7.20;74.70
7876;DHT22;69649;53.712;9.680;2023-11-21T12:25:18;7.00;74.70
7876;DHT22;69649;53.712;9.680;2023-11-21T12:27:51;7.00;75.20
7876;DHT22;69649;53.712;9.680;2023-11-21T12:30:26;7.00;75.70
7876;DHT22;69649;53.712;9.680;2023-11-21T12:32:55;7.00;75.70
7876;DHT22;69649;53.712;9.680;2023-11-21T12:35:26;7.00;75.70
7876;DHT22;69649;53.712;9.680;2023-11-21T12:37:53;7.00;75.50
7876;DHT22;69649;53.712;9.680;2023-11-21T12:40:20;7.00;75.50
7876;DHT22;69649;53.712;9.680;2023-11-21T12:42:49;6.90;74.90
7876;DHT22;69649;53.712;9.680;2023-11-21T12:45:22;6.90;75.00
7876;DHT22;69649;53.712;9.680;2023-11-21T12:47:49;6.80;75.40
7876;DHT22;69649;53.712;9.680;2023-11-21T12:50:18;6.80;75.90
7876;DHT22;69649;53.712;9.680;2023-11-21T12:52:46;6.90;76.10
7876;DHT22;69649;53.712;9.680;2023-11-21T12:55:17;6.90;75.70
7876;DHT22;69649;53.712;9.680;2023-11-21T12:57:48;6.90;76.00
7876;DHT22;69649;53.712;9.680;2023-11-21T13:00:16;7.00;76.10
7876;DHT22;69649;53.712;9.680;2023-11-21T13:02:44;7.00;76.00
7876;DHT22;69649;53.712;9.680;2023-11-21T13:05:10;6.90;76.00
7876;DHT22;69649;53.712;9.680;2023-11-21T13:07:44;6.80;76.40
7876;DHT22;69649;53.712;9.680;2023-11-21T13:10:13;6.80;76.60
7876;DHT22;69649;53.712;9.680;2023-11-21T13:12:46;6.80;76.90
7876;DHT22;69649;53.712;9.680;2023-11-21T13:15:16;6.80;76.60
7876;DHT22;69649;53.712;9.680;2023-11-21T13:17:45;6.80;76.80
7876;DHT22;69649;53.712;9.680;2023-11-21T13:20:11;6.80;76.50
7876;DHT22;69649;53.712;9.680;2023-11-21T13:22:47;6.80;76.60
7876;DHT22;69649;53.712;9.680;2023-11-21T13:25:15;6.70;76.80
7876;DHT22;69649;53.712;9.680;2023-11-21T13:27:45;6.80;76.80
7876;DHT22;69649;53.712;9.680;2023-11-21T13:30:14;6.80;76.90
7876;DHT22;69649;53.712;9.680;2023-11-21T13:32:43;6.80;76.90
7876;DHT22;69649;53.712;9.680;2023-11-21T13:35:09;6.70;76.80
7876;DHT22;69649;53.712;9.680;2023-11-21T13:37:37;6.70;76.80
7876;DHT22;69649;53.712;9.680;2023-11-21T13:40:04;6.60;77.00
7876;DHT22;69649;53.712;9.680;2023-11-21T13:42:32;6.50;77.00
7876;DHT22;69649;53.712;9.680;2023-11-21T13:44:57;6.40;77.20
7876;DHT22;69649;53.712;9.680;2023-11-21T13:47:23;6.40;77.50
7876;DHT22;69649;53.712;9.680;2023-11-21T13:49:51;6.30;77.60
7876;DHT22;69649;53.712;9.680;2023-11-21T13:52:17;6.30;77.20
7876;DHT22;69649;53.712;9.680;2023-11-21T13:54:45;6.30;77.20
7876;DHT22;69649;53.712;9.680;2023-11-21T13:57:10;6.30;77.30
7876;DHT22;69649;53.712;9.680;2023-11-21T13:59:36;6.30;77.50
7876;DHT22;69649;53.712;9.680;2023-11-21T14:02:02;6.30;77.50
7876;DHT22;69649;53.712;9.680;2023-11-21T14:04:30;6.30;77.50
7876;DHT22;69649;53.712;9.680;2023-11-21T14:06:57;6.30;77.50
7876;DHT22;69649;53.712;9.680;2023-11-21T14:09:25;6.30;77.60
7876;DHT22;69649;53.712;9.680;2023-11-21T14:11:54;6.30;77.50
7876;DHT22;69649;53.712;9.680;2023-11-21T14:14:23;6.30;77.50
7876;DHT22;69649;53.712;9.680;2023-11-21T14:16:51;6.20;77.50
7876;DHT22;69649;53.712;9.680;2023-11-21T14:19:18;6.20;77.60
7876;DHT22;69649;53.712;9.680;2023-11-21T14:21:44;6.10;77.70
7876;DHT22;69649;53.712;9.680;2023-11-21T14:24:11;6.00;77.60
7876;DHT22;69649;53.712;9.680;2023-11-21T14:26:41;6.00;78.00
7876;DHT22;69649;53.712;9.680;2023-11-21T14:29:08;6.00;78.00
7876;DHT22;69649;53.712;9.680;2023-11-21T14:31:36;5.90;78.20
7876;DHT22;69649;53.712;9.680;2023-11-21T14:34:02;5.90;78.30
7876;DHT22;69649;53.712;9.680;2023-11-21T14:36:28;5.80;78.30
7876;DHT22;69649;53.712;9.680;2023-11-21T14:38:54;5.70;78.40
7876;DHT22;69649;53.712;9.680;2023-11-21T14:41:20;5.80;78.50
7876;DHT22;69649;53.712;9.680;2023-11-21T14:43:46;5.80;78.40
7876;DHT22;69649;53.712;9.680;2023-11-21T14:46:13;5.70;78.40
7876;DHT22;69649;53.712;9.680;2023-11-21T14:48:41;5.80;78.60
7876;DHT22;69649;53.712;9.680;2023-11-21T14:51:11;5.80;78.70
7876;DHT22;69649;53.712;9.680;2023-11-21T14:53:59;5.80;78.70
7876;DHT22;69649;53.712;9.680;2023-11-21T14:56:27;5.70;78.70
7876;DHT22;69649;53.712;9.680;2023-11-21T14:58:55;5.70;78.70
7876;DHT22;69649;53.712;9.680;2023-11-21T15:01:25;5.70;78.80
7876;DHT22;69649;53.712;9.680;2023-11-21T15:04:10;5.70;78.70
7876;DHT22;69649;53.712;9.680;2023-11-21T15:06:54;5.70;78.60
7876;DHT22;69649;53.712;9.680;2023-11-21T15:09:22;5.70;78.70
7876;DHT22;69649;53.712;9.680;2023-11-21T15:11:50;5.70;78.70
7876;DHT22;69649;53.712;9.680;2023-11-21T15:14:17;5.70;78.70
7876;DHT22;69649;53.712;9.680;2023-11-21T15:16:45;5.70;78.60
7876;DHT22;69649;53.712;9.680;2023-11-21T15:19:12;5.70;78.70
7876;DHT22;69649;53.712;9.680;2023-11-21T15:21:40;5.80;78.70
7876;DHT22;69649;53.712;9.680;2023-11-21T15:24:06;5.80;78.70
7876;DHT22;69649;53.712;9.680;2023-11-21T15:26:32;5.90;78.70
7876;DHT22;69649;53.712;9.680;2023-11-21T15:28:58;5.80;78.30
7876;DHT22;69649;53.712;9.680;2023-11-21T15:31:23;5.80;78.30
7876;DHT22;69649;53.712;9.680;2023-11-21T15:33:53;5.80;78.30
7876;DHT22;69649;53.712;9.680;2023-11-21T15:36:20;5.80;78.10
7876;DHT22;69649;53.712;9.680;2023-11-21T15:38:46;5.80;78.10
7876;DHT22;69649;53.712;9.680;2023-11-21T15:41:12;5.80;78.00
7876;DHT22;69649;53.712;9.680;2023-11-21T15:43:37;5.80;78.20
7876;DHT22;69649;53.712;9.680;2023-11-21T15:46:03;5.80;78.00
7876;DHT22;69649;53.712;9.680;2023-11-21T15:48:36;5.80;77.90
7876;DHT22;69649;53.712;9.680;2023-11-21T15:51:04;5.80;77.90
7876;DHT22;69649;53.712;9.680;2023-11-21T15:53:30;5.80;78.00
7876;DHT22;69649;53.712;9.680;2023-11-21T15:55:57;5.80;78.10
7876;DHT22;69649;53.712;9.680;2023-11-21T15:58:23;5.80;78.00
7876;DHT22;69649;53.712;9.680;2023-11-21T16:00:51;5.80;78.00
7876;DHT22;69649;53.712;9.680;2023-11-21T16:03:17;5.80;77.90
7876;DHT22;69649;53.712;9.680;2023-11-21T16:05:43;5.80;78.00
7876;DHT22;69649;53.712;9.680;2023-11-21T16:08:09;5.80;77.80
7876;DHT22;69649;53.712;9.680;2023-11-21T16:10:34;5.80;77.60
7876;DHT22;69649;53.712;9.680;2023-11-21T16:13:02;5.80;77.70
7876;DHT22;69649;53.712;9.680;2023-11-21T16:15:28;5.80;77.50
7876;DHT22;69649;53.712;9.680;2023-11-21T16:17:54;5.80;77.50
7876;DHT22;69649;53.712;9.680;2023-11-21T16:20:20;5.70;77.20